createdAt,value
2023-02-04T00:02:08.936Z,100.00
2023-02-04T00:07:12.999Z,100.00
2023-02-04T00:12:14.700Z,100.00
2023-02-04T00:17:18.745Z,100.00
2023-02-04T00:22:21.231Z,100.00
2023-02-04T00:27:25.454Z,100.00
2023-02-04T00:32:27.149Z,100.00
2023-02-04T00:37:29.258Z,100.00
2023-02-04T00:42:30.948Z,100.00
2023-02-04T00:47:33.360Z,100.00
2023-02-04T00:52:37.373Z,100.00
2023-02-04T00:57:42.595Z,100.00
2023-02-04T01:02:44.394Z,100.00
2023-02-04T01:07:46.315Z,100.00
2023-02-04T01:12:49.777Z,100.00
2023-02-04T01:17:53.127Z,100.00
2023-02-04T01:22:54.940Z,100.00
2023-02-04T01:27:58.923Z,100.00
2023-02-04T01:33:05.333Z,100.00
2023-02-04T01:38:09.272Z,100.00
2023-02-04T01:43:11.795Z,100.00
2023-02-04T01:48:22.448Z,100.00
2023-02-04T01:53:27.116Z,100.00
2023-02-04T01:58:32.224Z,100.00
2023-02-04T02:03:34.879Z,100.00
2023-02-04T02:08:55.305Z,100.00
2023-02-04T02:14:05.550Z,100.00
2023-02-04T02:19:16.314Z,100.00
2023-02-04T02:24:27.844Z,100.00
2023-02-04T02:29:34.195Z,100.00
2023-02-04T02:34:36.431Z,100.00
2023-02-04T02:39:40.000Z,100.00
2023-02-04T02:44:42.138Z,100.00
2023-02-04T02:49:44.721Z,100.00
2023-02-04T02:54:49.245Z,100.00
2023-02-04T02:59:57.642Z,100.00
2023-02-04T03:05:01.279Z,100.00
2023-02-04T03:10:05.741Z,100.00
2023-02-04T03:15:10.286Z,100.00
2023-02-04T03:20:15.453Z,100.00
2023-02-04T03:25:20.563Z,100.00
2023-02-04T03:30:26.317Z,100.00
2023-02-04T03:35:28.038Z,100.00
2023-02-04T03:40:34.108Z,100.00
2023-02-04T03:45:45.288Z,100.00
2023-02-04T03:50:50.466Z,100.00
2023-02-04T03:55:52.153Z,100.00
2023-02-04T04:00:58.321Z,100.00
2023-02-04T04:06:06.334Z,100.00
2023-02-04T04:11:11.183Z,100.00
2023-02-04T04:16:20.760Z,100.00
2023-02-04T04:21:22.579Z,100.00
2023-02-04T04:26:26.912Z,100.00
2023-02-04T04:31:28.722Z,100.00
2023-02-04T04:36:37.907Z,100.00
2023-02-04T04:41:42.094Z,100.00
2023-02-04T04:46:46.062Z,100.00
2023-02-04T04:51:56.655Z,100.00
2023-02-04T04:57:01.056Z,100.00
2023-02-04T05:02:05.870Z,100.00
2023-02-04T05:07:07.552Z,100.00
2023-02-04T05:12:11.619Z,100.00
2023-02-04T05:17:15.603Z,100.00
2023-02-04T05:22:19.613Z,100.00
2023-02-04T05:27:21.322Z,100.00
2023-02-04T05:32:23.102Z,100.00
2023-02-04T05:37:24.797Z,100.00
2023-02-04T05:42:26.623Z,100.00
2023-02-04T05:47:34.220Z,100.00
2023-02-04T05:52:35.961Z,100.00
2023-02-04T05:57:39.930Z,100.00
2023-02-04T06:02:41.661Z,100.00
2023-02-04T06:07:43.329Z,100.00
2023-02-04T06:12:45.298Z,100.00
2023-02-04T06:17:49.281Z,100.00
2023-02-04T06:22:55.710Z,100.00
2023-02-04T06:27:59.904Z,100.00
2023-02-04T06:33:04.813Z,100.00
2023-02-04T06:38:11.171Z,100.00
2023-02-04T06:43:15.948Z,100.00
2023-02-04T06:48:22.565Z,100.00
2023-02-04T06:53:29.266Z,100.00
2023-02-04T06:58:30.996Z,100.00
2023-02-04T07:03:36.703Z,100.00
2023-02-04T07:08:40.744Z,100.00
2023-02-04T07:13:42.467Z,100.00
2023-02-04T07:18:46.597Z,100.00
2023-02-04T07:23:51.517Z,100.00
2023-02-04T07:28:55.687Z,100.00
2023-02-04T07:33:57.348Z,100.00
2023-02-04T07:39:01.352Z,100.00
2023-02-04T07:44:03.698Z,100.00
2023-02-04T07:49:07.778Z,100.00
2023-02-04T07:54:12.689Z,100.00
2023-02-04T07:59:16.881Z,100.00
2023-02-04T08:04:18.618Z,100.00
2023-02-04T08:09:20.911Z,100.00
2023-02-04T08:14:22.778Z,100.00
2023-02-04T08:19:26.684Z,100.00
2023-02-04T08:24:30.813Z,100.00
2023-02-04T08:29:35.740Z,100.00
2023-02-04T08:34:44.404Z,100.00
2023-02-04T08:39:47.361Z,100.00
2023-02-04T08:44:53.631Z,100.00
2023-02-04T08:49:58.520Z,100.00
2023-02-04T08:55:05.193Z,100.00
2023-02-04T09:00:12.114Z,100.00
2023-02-04T09:05:14.695Z,100.00
2023-02-04T09:10:18.895Z,100.00
2023-02-04T09:15:28.528Z,100.00
2023-02-04T09:20:33.342Z,100.00
2023-02-04T09:25:42.299Z,100.00
2023-02-04T09:30:47.649Z,100.00
2023-02-04T09:35:51.749Z,100.00
2023-02-04T09:40:55.961Z,100.00
2023-02-04T09:46:02.562Z,100.00
2023-02-04T09:51:08.721Z,100.00
2023-02-04T09:56:11.556Z,100.00
2023-02-04T10:01:20.945Z,100.00
2023-02-04T10:06:25.582Z,100.00
2023-02-04T10:11:28.090Z,100.00
2023-02-04T10:16:34.675Z,100.00
2023-02-04T10:21:40.444Z,100.00
2023-02-04T10:26:42.525Z,100.00
2023-02-04T10:31:52.998Z,100.00
2023-02-04T10:36:58.012Z,100.00
2023-02-04T10:42:00.872Z,100.00
2023-02-04T10:47:15.502Z,100.00
2023-02-04T10:52:19.355Z,100.00
2023-02-04T10:57:26.874Z,100.00
2023-02-04T11:02:44.917Z,100.00
2023-02-04T11:07:53.153Z,100.00
2023-02-04T11:12:57.215Z,100.00
2023-02-04T11:18:04.352Z,99.79
2023-02-04T11:23:36.969Z,98.95
2023-02-04T11:28:39.214Z,98.10
2023-02-04T11:33:45.661Z,96.60
2023-02-04T11:38:52.169Z,92.92
2023-02-04T11:43:57.554Z,90.10
2023-02-04T11:48:59.617Z,91.60
2023-02-04T11:54:01.365Z,90.63
2023-02-04T11:59:03.069Z,92.30
2023-02-04T12:04:07.512Z,89.89
2023-02-04T12:09:27.409Z,88.84
2023-02-04T12:14:34.379Z,89.15
2023-02-04T12:19:36.114Z,89.10
2023-02-04T12:24:37.879Z,87.36
2023-02-04T12:29:40.586Z,85.77
2023-02-04T12:34:50.320Z,83.52
2023-02-04T12:39:54.090Z,83.01
2023-02-04T12:45:02.966Z,81.29
2023-02-04T12:50:05.810Z,77.38
2023-02-04T12:55:09.020Z,74.98
2023-02-04T13:00:12.562Z,74.61
2023-02-04T13:05:17.112Z,72.01
2023-02-04T13:10:20.056Z,72.78
2023-02-04T13:15:22.837Z,73.65
2023-02-04T13:20:24.650Z,74.66
2023-02-04T13:25:26.447Z,75.57
2023-02-04T13:30:30.415Z,76.26
2023-02-04T13:35:38.453Z,76.35
2023-02-04T13:40:43.223Z,75.78
2023-02-04T13:45:47.805Z,76.21
2023-02-04T13:50:52.690Z,74.66
2023-02-04T13:55:54.376Z,74.93
2023-02-04T14:00:57.508Z,74.64
2023-02-04T14:05:59.274Z,72.90
2023-02-04T14:11:01.206Z,71.15
2023-02-04T14:16:02.919Z,71.75
2023-02-04T14:21:05.396Z,70.20
2023-02-04T14:26:07.100Z,69.51
2023-02-04T14:31:13.591Z,71.78
2023-02-04T14:36:17.419Z,72.24
2023-02-04T14:41:21.539Z,73.21
2023-02-04T14:46:28.111Z,73.82
2023-02-04T14:51:30.040Z,73.40
2023-02-04T14:56:34.270Z,73.78
2023-02-04T15:01:36.036Z,75.27
2023-02-04T15:06:42.318Z,75.43
2023-02-04T15:11:44.094Z,76.73
2023-02-04T15:16:48.469Z,77.26
2023-02-04T15:21:50.303Z,78.35
2023-02-04T15:26:52.215Z,78.77
2023-02-04T15:31:56.941Z,78.33
2023-02-04T15:36:58.708Z,79.13
2023-02-04T15:42:05.229Z,80.98
2023-02-04T15:47:07.026Z,80.32
2023-02-04T15:52:13.498Z,81.20
2023-02-04T15:57:25.379Z,82.17
2023-02-04T16:02:27.196Z,82.66
2023-02-04T16:07:42.432Z,84.43
2023-02-04T16:13:40.045Z,84.35
2023-02-04T16:26:10.905Z,86.84
2023-02-04T16:31:14.140Z,88.89
2023-02-04T16:36:18.252Z,89.13
2023-02-04T16:41:25.256Z,89.57
2023-02-04T16:46:31.904Z,90.76
2023-02-04T16:51:34.770Z,91.49
2023-02-04T16:56:39.102Z,92.06
2023-02-04T17:01:43.022Z,92.81
2023-02-04T17:06:48.882Z,94.34
2023-02-04T17:11:53.081Z,94.96
2023-02-04T17:16:55.686Z,95.46
2023-02-04T17:22:01.937Z,96.54
2023-02-04T17:27:04.416Z,97.59
2023-02-04T17:32:12.222Z,98.10
2023-02-04T17:37:16.427Z,98.79
2023-02-04T17:42:20.925Z,99.48
2023-02-04T17:47:23.309Z,100.00
2023-02-04T17:52:26.594Z,100.00
2023-02-04T17:57:35.908Z,100.00
2023-02-04T18:02:45.005Z,100.00
2023-02-04T18:07:58.198Z,100.00
2023-02-04T18:13:30.509Z,100.00
2023-02-04T18:18:35.980Z,100.00
2023-02-04T18:23:37.740Z,100.00
2023-02-04T18:28:43.661Z,100.00
2023-02-04T18:33:50.458Z,100.00
2023-02-04T18:38:57.815Z,100.00
2023-02-04T18:44:02.839Z,100.00
2023-02-04T18:49:18.511Z,100.00
2023-02-04T18:54:35.526Z,100.00
2023-02-04T18:59:38.332Z,100.00
2023-02-04T19:04:40.059Z,100.00
2023-02-04T19:09:41.725Z,100.00
2023-02-04T19:14:48.256Z,100.00
2023-02-04T19:19:55.801Z,100.00
2023-02-04T19:25:16.862Z,100.00
2023-02-04T19:30:26.700Z,100.00
2023-02-04T19:35:43.176Z,100.00
2023-02-04T19:40:48.166Z,100.00
2023-02-04T19:45:53.069Z,100.00
2023-02-04T19:50:55.410Z,100.00
2023-02-04T19:56:02.230Z,100.00
2023-02-04T20:01:08.258Z,100.00
2023-02-04T20:06:10.009Z,100.00
2023-02-04T20:11:35.181Z,100.00
2023-02-04T20:16:39.689Z,100.00
2023-02-04T20:21:41.578Z,100.00
2023-02-04T20:26:48.418Z,100.00
2023-02-04T20:31:51.166Z,100.00
2023-02-04T20:36:56.622Z,100.00
2023-02-04T20:42:18.953Z,100.00
2023-02-04T20:47:28.004Z,100.00
2023-02-04T20:52:43.638Z,100.00
2023-02-04T20:57:48.184Z,100.00
2023-02-04T21:02:54.897Z,100.00
2023-02-04T21:07:57.933Z,100.00
2023-02-04T21:13:01.549Z,100.00
2023-02-04T21:18:09.273Z,100.00
2023-02-04T21:23:13.294Z,100.00
2023-02-04T21:28:17.631Z,100.00
2023-02-04T21:33:19.443Z,100.00
2023-02-04T21:38:23.435Z,100.00
2023-02-04T21:43:29.976Z,100.00
2023-02-04T21:48:34.237Z,100.00
2023-02-04T21:53:36.270Z,100.00
2023-02-04T21:58:38.720Z,100.00
2023-02-04T22:03:40.449Z,100.00
2023-02-04T22:08:44.667Z,100.00
2023-02-04T22:14:07.281Z,100.00
2023-02-04T22:19:08.982Z,100.00
2023-02-04T22:24:17.759Z,100.00
2023-02-04T22:29:28.708Z,100.00
2023-02-04T22:34:32.880Z,100.00
2023-02-04T22:39:34.595Z,100.00
2023-02-04T22:44:36.251Z,100.00
2023-02-04T22:49:37.932Z,100.00
2023-02-04T22:54:41.045Z,100.00
2023-02-04T22:59:46.375Z,100.00
2023-02-04T23:04:48.980Z,100.00
2023-02-04T23:09:53.056Z,100.00
2023-02-04T23:14:59.641Z,100.00
2023-02-04T23:20:05.443Z,100.00
2023-02-04T23:25:07.664Z,100.00
2023-02-04T23:30:10.621Z,100.00
2023-02-04T23:35:14.916Z,100.00
2023-02-04T23:40:17.017Z,100.00
2023-02-04T23:45:21.280Z,100.00
2023-02-04T23:50:25.913Z,100.00
2023-02-04T23:55:33.323Z,100.00
